Time;durP1;ratioP1;P1;durP2;ratioP2;P2;SDS_P1;SDS_P2;PMS_P1;PMS_P2;Temp;Humidity;BMP_temperature;BMP_pressure;BME280_temperature;BME280_humidity;BME280_pressure;Samples;Min_cycle;Max_cycle;Signal;HPM_P1;HPM_P2
2021/10/31 00:01:08;;;;;;;16.43;8.73;;;;;;;;;;5046944;28;20418;-76
2021/10/31 00:03:43;;;;;;;22.40;9.30;;;;;;;;;;5063088;28;20489;-77
2021/10/31 00:06:20;;;;;;;20.60;9.63;;;;;;;;;;5038640;28;20449;-77
2021/10/31 00:08:47;;;;;;;17.03;9.00;;;;;;;;;;5034212;28;20792;-77
2021/10/31 00:11:13;;;;;;;16.07;8.53;;;;;;;;;;5050068;28;20414;-77
2021/10/31 00:13:43;;;;;;;22.40;8.60;;;;;;;;;;5046053;28;21000;-77
2021/10/31 00:16:09;;;;;;;16.20;8.13;;;;;;;;;;5037642;28;20461;-77
2021/10/31 00:18:49;;;;;;;20.50;8.07;;;;;;;;;;5064319;28;20427;-76
2021/10/31 00:21:15;;;;;;;21.23;9.17;;;;;;;;;;5050860;28;20416;-76
2021/10/31 00:23:44;;;;;;;15.90;8.00;;;;;;;;;;5033553;28;20427;-76
2021/10/31 00:26:10;;;;;;;20.13;9.07;;;;;;;;;;5058586;28;20417;-76
2021/10/31 00:28:36;;;;;;;30.97;10.03;;;;;;;;;;5053091;28;20480;-77
2021/10/31 00:31:03;;;;;;;30.83;9.23;;;;;;;;;;5067998;28;20418;-76
2021/10/31 00:33:29;;;;;;;26.47;9.03;;;;;;;;;;5060824;28;20434;-76
2021/10/31 00:35:56;;;;;;;21.47;9.13;;;;;;;;;;5039561;28;20544;-76
2021/10/31 00:38:32;;;;;;;20.23;8.77;;;;;;;;;;5052935;28;20768;-76
2021/10/31 00:40:58;;;;;;;18.27;8.40;;;;;;;;;;5042779;28;20409;-76
2021/10/31 00:43:25;;;;;;;25.97;8.33;;;;;;;;;;5050750;28;20420;-77
2021/10/31 00:45:56;;;;;;;17.93;8.97;;;10.50;1.00;;;;;;5053105;28;20426;-76
2021/10/31 00:48:22;;;;;;;21.73;8.10;;;;;;;;;;5051873;28;20425;-77
2021/10/31 00:50:55;;;;;;;13.00;8.37;;;;;;;;;;5043406;28;20910;-77
2021/10/31 00:53:22;;;;;;;22.20;7.80;;;;;;;;;;5053105;28;20414;-77
2021/10/31 00:55:49;;;;;;;23.70;8.77;;;;;;;;;;5052552;28;20454;-77
2021/10/31 00:58:15;;;;;;;28.57;9.87;;;;;;;;;;5041638;28;20502;-77
2021/10/31 01:00:42;;;;;;;35.43;10.67;;;;;;;;;;5056649;28;20467;-77
2021/10/31 01:03:08;;;;;;;14.13;8.47;;;;;;;;;;5038967;28;20413;-77
2021/10/31 01:05:47;;;;;;;23.50;9.77;;;10.50;1.00;;;;;;5060755;28;20922;-77
2021/10/31 01:08:15;;;;;;;14.97;8.60;;;;;;;;;;5053038;28;20390;-77
2021/10/31 01:11:11;;;;;;;23.00;9.27;;;10.60;1.00;;;;;;5064074;28;20407;-77
2021/10/31 01:13:45;;;;;;;23.80;9.17;;;10.50;1.00;;;;;;5052512;28;20538;-77
2021/10/31 01:16:15;;;;;;;20.00;8.07;;;;;;;;;;5052611;28;20469;-77
2021/10/31 01:19:19;;;;;;;19.57;7.83;;;10.60;1.00;;;;;;5052050;28;20433;-77
2021/10/31 01:22:11;;;;;;;17.60;8.57;;;;;;;;;;5052536;28;20474;-77
2021/10/31 01:24:58;;;;;;;21.47;9.30;;;10.60;1.00;;;;;;4991137;28;20461;-77
2021/10/31 01:28:03;;;;;;;16.50;8.07;;;10.60;1.00;;;;;;4991307;28;20475;-77
2021/10/31 01:30:31;;;;;;;16.83;7.47;;;;;;;;;;4982167;28;20561;-77
2021/10/31 01:33:01;;;;;;;24.70;8.80;;;;;;;;;;4991265;28;20436;-77
2021/10/31 01:35:48;;;;;;;25.93;9.50;;;;;;;;;;4991566;28;21038;-77
2021/10/31 01:38:55;;;;;;;18.20;8.43;;;10.50;1.00;;;;;;4991082;28;20427;-77
2021/10/31 01:41:37;;;;;;;16.80;7.77;;;;;;;;;;4990927;28;20512;-76
2021/10/31 01:44:20;;;;;;;21.60;8.33;;;;;;;;;;4994713;28;20417;-76
2021/10/31 01:46:55;;;;;;;19.73;8.73;;;;;;;;;;4995008;28;20528;-76
2021/10/31 01:49:24;;;;;;;21.10;7.87;;;;;;;;;;4994934;28;20432;-77
2021/10/31 01:51:53;;;;;;;21.47;9.47;;;;;;;;;;4987099;28;20924;-77
2021/10/31 01:54:21;;;;;;;18.50;8.30;;;;;;;;;;4976684;28;20418;-77
2021/10/31 01:56:51;;;;;;;19.90;8.80;;;10.40;1.00;;;;;;4995564;28;20425;-77
2021/10/31 01:59:39;;;;;;;17.50;7.53;;;10.30;1.00;;;;;;5004034;28;20424;-77
2021/10/31 02:02:06;;;;;;;15.13;7.87;;;;;;;;;;5040517;28;20457;-78
2021/10/31 02:04:34;;;;;;;25.73;9.67;;;10.20;1.00;;;;;;5055570;28;20409;-77
2021/10/31 02:07:02;;;;;;;14.43;7.43;;;10.10;1.00;;;;;;5041433;28;20414;-77
2021/10/31 02:09:32;;;;;;;14.10;7.57;;;10.00;1.00;;;;;;5056153;28;20492;-77
2021/10/31 02:12:14;;;;;;;18.13;7.50;;;;;;;;;;5047542;28;20728;-77
2021/10/31 02:14:45;;;;;;;22.87;7.27;;;9.90;1.00;;;;;;5055846;28;20476;-77
2021/10/31 02:17:11;;;;;;;21.80;8.17;;;;;;;;;;5055724;28;20446;-77
2021/10/31 02:19:45;;;;;;;27.60;9.00;;;9.80;1.00;;;;;;5056297;28;20403;-77
2021/10/31 02:22:23;;;;;;;14.77;7.67;;;9.80;1.00;;;;;;5049982;28;20426;-76
2021/10/31 02:25:02;;;;;;;17.70;8.20;;;9.80;1.00;;;;;;5063142;28;20418;-77
2021/10/31 02:27:33;;;;;;;16.93;7.90;;;9.80;1.00;;;;;;5052749;28;20430;-77
2021/10/31 02:30:14;;;;;;;19.90;8.07;;;;;;;;;;5055706;28;20579;-76
2021/10/31 02:32:51;;;;;;;21.57;8.00;;;;;;;;;;5051118;28;20509;-76
2021/10/31 02:35:17;;;;;;;19.77;8.10;;;;;;;;;;5045691;28;20480;-77
2021/10/31 02:37:50;;;;;;;10.80;7.23;;;;;;;;;;5055167;28;20765;-77
2021/10/31 02:40:19;;;;;;;38.10;8.87;;;9.70;1.00;;;;;;5054532;28;20418;-77
2021/10/31 02:42:45;;;;;;;14.47;7.90;;;;;;;;;;5068769;28;20424;-77
2021/10/31 02:45:14;;;;;;;14.87;8.13;;;9.70;1.00;;;;;;5055522;28;20416;-77
2021/10/31 02:48:00;;;;;;;25.83;8.93;;;9.80;1.00;;;;;;5055283;28;20456;-77
2021/10/31 02:50:31;;;;;;;23.50;7.70;;;;;;;;;;5055303;28;20737;-77
2021/10/31 02:53:08;;;;;;;20.10;7.97;;;;;;;;;;5063955;28;20470;-77
2021/10/31 02:56:00;;;;;;;19.00;7.60;;;9.90;1.00;;;;;;5055809;28;20461;-77
2021/10/31 02:58:26;;;;;;;17.60;7.80;;;;;;;;;;5068406;28;20408;-77
2021/10/31 03:00:58;;;;;;;15.20;7.80;;;9.90;1.00;;;;;;5055019;28;20425;-77
2021/10/31 03:03:24;;;;;;;20.43;8.53;;;;;;;;;;5070571;28;20421;-77
2021/10/31 03:05:57;;;;;;;26.43;9.50;;;;;;;;;;5057224;28;20819;-77
2021/10/31 03:08:32;;;;;;;13.10;6.77;;;9.80;1.00;;;;;;5068501;28;20417;-77
2021/10/31 03:11:01;;;;;;;20.23;8.20;;;9.80;1.00;;;;;;5046940;28;20419;-77
2021/10/31 03:13:27;;;;;;;27.53;8.47;;;;;;;;;;5054767;28;20958;-78
2021/10/31 03:15:55;;;;;;;42.77;8.60;;;;;;;;;;5054816;28;20478;-76
2021/10/31 03:18:38;;;;;;;18.20;8.10;;;;;;;;;;5059824;28;20425;-77
2021/10/31 03:21:04;;;;;;;15.53;6.63;;;;;;;;;;5049720;28;20421;-77
2021/10/31 03:23:43;;;;;;;19.40;8.33;;;;;;;;;;5052165;28;20939;-77
2021/10/31 03:26:19;;;;;;;19.70;8.30;;;;;;;;;;5048111;28;20498;-77
2021/10/31 03:28:49;;;;;;;21.20;8.30;;;;;;;;;;5052769;28;20861;-77
2021/10/31 03:31:19;;;;;;;13.90;7.10;;;;;;;;;;5070372;28;20421;-77
2021/10/31 03:33:45;;;;;;;14.83;8.00;;;;;;;;;;5060832;28;20430;-77
2021/10/31 03:36:13;;;;;;;19.00;7.70;;;;;;;;;;5057762;28;20458;-77
2021/10/31 03:38:43;;;;;;;14.40;6.97;;;;;;;;;;5066784;28;20947;-76
2021/10/31 03:41:13;;;;;;;28.73;8.50;;;;;;;;;;5052957;28;20904;-76
2021/10/31 03:43:40;;;;;;;20.43;8.47;;;;;;;;;;5067326;28;20419;-77
2021/10/31 03:46:06;;;;;;;22.10;8.53;;;;;;;;;;5053656;28;20984;-76
2021/10/31 03:48:38;;;;;;;14.20;6.57;;;;;;;;;;5048191;28;20418;-77
2021/10/31 03:51:04;;;;;;;21.27;7.90;;;;;;;;;;5045020;28;20425;-76
2021/10/31 03:53:31;;;;;;;17.87;7.80;;;;;;;;;;5068676;28;20914;-77
2021/10/31 03:56:01;;;;;;;23.87;8.33;;;;;;;;;;5065875;28;20450;-78
2021/10/31 03:58:27;;;;;;;24.13;7.50;;;;;;;;;;5054026;28;20434;-77
2021/10/31 04:00:55;;;;;;;16.53;7.67;;;;;;;;;;5046657;28;20781;-77
2021/10/31 04:03:25;;;;;;;18.23;7.90;;;;;;;;;;5053670;28;20791;-77
2021/10/31 04:05:55;;;;;;;17.40;8.37;;;;;;;;;;5063904;28;20417;-77
2021/10/31 04:08:26;;;;;;;11.50;6.27;;;;;;;;;;5046407;28;20422;-76
2021/10/31 04:10:55;;;;;;;14.77;7.73;;;;;;;;;;5050452;28;20943;-76
2021/10/31 04:13:21;;;;;;;18.50;7.90;;;;;;;;;;5053693;28;20904;-76
2021/10/31 04:15:50;;;;;;;16.27;7.50;;;;;;;;;;5049233;28;20458;-76
2021/10/31 04:18:16;;;;;;;16.20;8.33;;;;;;;;;;5058131;28;20429;-76
2021/10/31 04:20:43;;;;;;;27.67;8.73;;;;;;;;;;5059217;28;20832;-77
2021/10/31 04:23:14;;;;;;;15.13;7.40;;;;;;;;;;5044757;28;20406;-77
2021/10/31 04:25:40;;;;;;;14.17;6.33;;;;;;;;;;5052208;28;20430;-77
2021/10/31 04:28:07;;;;;;;16.70;7.83;;;8.10;1.00;;;;;;5053549;28;20432;-77
2021/10/31 04:30:33;;;;;;;18.43;7.17;;;;;;;;;;5049763;28;20507;-77
2021/10/31 04:32:59;;;;;;;13.07;6.90;;;;;;;;;;5053489;28;20483;-77
2021/10/31 04:35:25;;;;;;;13.80;6.60;;;;;;;;;;5052397;28;20976;-77
2021/10/31 04:37:55;;;;;;;14.87;7.53;;;;;;;;;;5053202;28;20897;-77
2021/10/31 04:40:25;;;;;;;20.63;8.17;;;;;;;;;;5051185;28;20472;-77
2021/10/31 04:42:53;;;;;;;14.70;6.77;;;;;;;;;;5066728;28;20455;-77
2021/10/31 04:45:20;;;;;;;15.00;6.47;;;;;;;;;;5053389;28;20426;-77
2021/10/31 04:47:46;;;;;;;16.87;6.67;;;;;;;;;;5066801;28;20512;-77
2021/10/31 04:50:12;;;;;;;17.73;7.67;;;;;;;;;;5065223;28;20887;-77
2021/10/31 04:52:49;;;;;;;21.40;8.13;;;;;;;;;;5067004;28;20907;-77
2021/10/31 04:55:19;;;;;;;12.27;6.40;;;;;;;;;;5053174;28;20452;-76
2021/10/31 04:57:50;;;;;;;22.63;7.97;;;;;;;;;;5052666;28;20915;-77
2021/10/31 05:00:32;;;;;;;20.17;7.37;;;;;;;;;;5054688;28;20405;-78
2021/10/31 05:02:58;;;;;;;13.20;6.53;;;;;;;;;;5053255;28;20521;-77
2021/10/31 05:05:25;;;;;;;15.07;7.03;;;;;;;;;;5052901;28;20444;-77
2021/10/31 05:07:55;;;;;;;17.53;8.00;;;;;;;;;;5053569;28;20402;-77
2021/10/31 05:10:27;;;;;;;27.33;8.60;;;;;;;;;;5052033;28;20417;-77
2021/10/31 05:12:53;;;;;;;15.17;7.90;;;;;;;;;;5059002;28;20443;-78
2021/10/31 05:15:19;;;;;;;16.40;7.80;;;;;;;;;;5055005;28;20485;-78
2021/10/31 05:17:46;;;;;;;11.43;6.80;;;;;;;;;;5056989;28;20426;-77
2021/10/31 05:20:12;;;;;;;21.07;7.80;;;;;;;;;;5056890;28;20407;-79
2021/10/31 05:22:44;;;;;;;20.50;8.13;;;;;;;;;;5050479;28;20425;-77
2021/10/31 05:25:10;;;;;;;17.23;7.30;;;;;;;;;;5054774;28;20418;-77
2021/10/31 05:27:36;;;;;;;18.37;7.90;;;;;;;;;;5070314;28;20409;-77
2021/10/31 05:30:14;;;;;;;23.87;8.00;;;;;;;;;;5055110;28;20517;-77
2021/10/31 05:32:41;;;;;;;20.37;9.07;;;;;;;;;;5056395;28;20413;-77
2021/10/31 05:35:09;;;;;;;15.57;8.33;;;8.00;1.00;;;;;;5064846;28;20468;-77
2021/10/31 05:37:44;;;;;;;15.83;7.07;;;8.00;1.00;;;;;;5060554;28;20958;-77
2021/10/31 05:40:11;;;;;;;22.13;7.70;;;;;;;;;;5043753;28;20413;-77
2021/10/31 05:42:38;;;;;;;31.77;9.50;;;8.20;1.00;;;;;;5056396;28;20414;-77
2021/10/31 05:45:07;;;;;;;14.43;7.77;;;;;;;;;;5067716;28;20448;-78
2021/10/31 05:47:39;;;;;;;18.33;7.93;;;8.30;1.00;;;;;;5065578;28;20808;-77
2021/10/31 05:50:07;;;;;;;26.40;9.23;;;8.40;1.00;;;;;;5056449;28;20444;-77
2021/10/31 05:52:33;;;;;;;17.70;8.40;;;;;;;;;;5056758;28;20468;-77
2021/10/31 05:54:59;;;;;;;25.93;8.00;;;8.60;1.00;;;;;;5056401;28;20461;-79
2021/10/31 05:57:38;;;;;;;22.63;8.83;;;8.70;1.00;;;;;;5056574;28;20424;-79
2021/10/31 06:00:09;;;;;;;15.00;7.30;;;;;;;;;;5056170;28;20418;-78
2021/10/31 06:02:35;;;;;;;15.73;7.60;;;;;;;;;;5055939;28;20417;-78
2021/10/31 06:05:02;;;;;;;18.07;7.90;;;;;;;;;;5050576;28;20450;-79
2021/10/31 06:07:28;;;;;;;11.03;7.17;;;;;;;;;;5048424;28;20454;-78
2021/10/31 06:10:02;;;;;;;18.77;8.43;;;;;;;;;;5051820;28;20754;-78
2021/10/31 06:12:29;;;;;;;14.73;7.60;;;;;;;;;;5051156;28;20740;-78
2021/10/31 06:14:58;;;;;;;19.33;7.97;;;9.10;1.00;;;;;;5044584;28;20460;-78
2021/10/31 06:17:24;;;;;;;16.73;7.93;;;;;;;;;;5055685;28;20438;-78
2021/10/31 06:19:54;;;;;;;16.50;7.47;;;;;;;;;;5039879;28;20446;-78
2021/10/31 06:22:26;;;;;;;17.73;7.67;;;;;;;;;;5041633;28;20430;-77
2021/10/31 06:25:13;;;;;;;15.07;7.27;;;;;;;;;;5054098;28;20399;-78
2021/10/31 06:27:39;;;;;;;15.40;6.73;;;;;;;;;;5054389;28;20429;-79
2021/10/31 06:30:08;;;;;;;14.63;7.43;;;;;;;;;;5053428;28;20415;-78
2021/10/31 06:32:34;;;;;;;18.13;7.30;;;;;;;;;;5054295;28;20501;-78
2021/10/31 06:35:19;;;;;;;27.63;8.70;;;9.30;1.00;;;;;;5046171;28;20936;-78
2021/10/31 06:37:50;;;;;;;18.80;7.70;;;;;;;;;;5055546;28;20405;-77
2021/10/31 06:40:16;;;;;;;14.53;6.70;;;;;;;;;;5054178;28;20421;-77
2021/10/31 06:42:44;;;;;;;22.53;8.20;;;;;;;;;;5057211;28;20464;-77
2021/10/31 06:45:11;;;;;;;18.00;7.60;;;;;;;;;;5061933;28;20744;-77
2021/10/31 06:47:38;;;;;;;18.20;8.07;;;;;;;;;;5065946;28;20418;-77
2021/10/31 06:50:08;;;;;;;13.50;7.40;;;;;;;;;;5067514;28;20924;-76
2021/10/31 06:52:38;;;;;;;13.93;7.47;;;;;;;;;;5054251;28;20762;-78
2021/10/31 06:55:11;;;;;;;13.73;8.07;;;;;;;;;;5055223;28;20499;-78
2021/10/31 06:57:40;;;;;;;18.40;7.83;;;9.80;1.00;;;;;;5066981;28;20414;-79
2021/10/31 07:00:21;;;;;;;23.27;7.60;;;;;;;;;;5054645;28;20415;-78
2021/10/31 07:02:48;;;;;;;14.13;7.40;;;;;;;;;;5050191;28;20429;-78
2021/10/31 07:05:29;;;;;;;15.83;7.90;;;10.00;1.00;;;;;;5055132;28;20450;-78
2021/10/31 07:08:02;;;;;;;12.97;7.30;;;;;;;;;;5041186;28;20423;-77
2021/10/31 07:10:28;;;;;;;18.70;7.77;;;;;;;;;;5056125;28;20424;-77
2021/10/31 07:12:55;;;;;;;22.07;8.43;;;;;;;;;;5051358;28;21023;-76
2021/10/31 07:15:21;;;;;;;24.10;9.13;;;;;;;;;;5048639;28;20473;-76
2021/10/31 07:17:50;;;;;;;15.80;7.40;;;;;;;;;;5040507;28;20442;-76
2021/10/31 07:20:16;;;;;;;16.03;8.00;;;;;;;;;;5040575;28;20426;-76
2021/10/31 07:22:44;;;;;;;21.40;8.90;;;;;;;;;;5049499;28;20745;-77
2021/10/31 07:25:12;;;;;;;18.93;8.53;;;10.90;1.00;;;;;;5053870;28;20414;-76
2021/10/31 07:27:40;;;;;;;16.17;7.27;;;10.90;1.00;;;;;;5042947;28;20427;-77
2021/10/31 07:30:07;;;;;;;11.80;7.43;;;;;;;;;;5054697;28;20896;-77
2021/10/31 07:32:33;;;;;;;18.23;8.33;;;;;;;;;;5054936;28;20943;-77
2021/10/31 07:34:59;;;;;;;13.87;7.07;;;;;;;;;;5062375;28;20457;-77
2021/10/31 07:37:29;;;;;;;20.17;8.50;;;;;;;;;;5057747;28;20501;-77
2021/10/31 07:39:57;;;;;;;14.50;7.10;;;;;;;;;;5043157;28;20394;-76
2021/10/31 07:42:30;;;;;;;19.27;8.73;;;;;;;;;;5050354;28;20925;-76
2021/10/31 07:44:58;;;;;;;29.77;8.53;;;11.40;1.00;;;;;;5048240;28;20415;-78
2021/10/31 07:47:31;;;;;;;22.43;10.50;;;;;;;;;;5052278;28;20426;-78
2021/10/31 07:50:19;;;;;;;18.47;9.83;;;;;;;;;;5054276;28;20398;-78
2021/10/31 07:52:45;;;;;;;33.80;11.17;;;;;;;;;;5041797;28;20418;-78
2021/10/31 07:55:33;;;;;;;26.63;9.43;;;11.90;1.00;;;;;;5054482;28;20461;-79
2021/10/31 07:58:00;;;;;;;18.57;8.23;;;;;;;;;;5052206;28;20407;-78
2021/10/31 08:00:27;;;;;;;20.73;8.97;;;;;;;;;;5036807;28;20427;-78
2021/10/31 08:02:56;;;;;;;19.90;9.10;;;;;;;;;;5064093;28;20405;-78
2021/10/31 08:05:22;;;;;;;14.43;7.70;;;;;;;;;;5052381;28;20418;-79
2021/10/31 08:07:57;;;;;;;21.83;10.47;;;;;;;;;;5055171;28;20389;-77
2021/10/31 08:10:46;;;;;;;16.67;8.87;;;12.60;1.00;;;;;;5053077;28;20500;-77
2021/10/31 08:13:26;;;;;;;21.57;8.43;;;12.80;1.00;;;;;;5053103;28;20401;-77
2021/10/31 08:16:01;;;;;;;20.43;7.80;;;13.30;1.00;;;;;;5049319;28;20437;-77
2021/10/31 08:18:28;;;;;;;18.33;9.07;;;;;;;;;;5041282;28;20495;-77
2021/10/31 08:20:55;;;;;;;14.80;8.47;;;;;;;;;;5037453;28;20415;-77
2021/10/31 08:23:26;;;;;;;19.67;9.47;;;;;;;;;;5053044;28;20905;-80
2021/10/31 08:25:52;;;;;;;14.80;7.03;;;13.00;1.00;;;;;;5047523;28;20400;-79
2021/10/31 08:28:19;;;;;;;21.47;10.37;;;13.00;1.00;;;;;;5052625;28;20389;-79
2021/10/31 08:30:56;;;;;;;22.47;9.93;;;13.30;1.00;;;;;;5052439;28;20607;-80
2021/10/31 08:33:35;;;;;;;20.37;9.73;;;13.40;1.00;;;;;;5050240;28;20424;-80
2021/10/31 08:36:14;;;;;;;28.10;10.30;;;13.30;1.00;;;;;;5061885;28;20475;-80
2021/10/31 08:38:44;;;;;;;23.10;10.10;;;;;;;;;;5041851;28;20420;-76
2021/10/31 08:41:10;;;;;;;18.50;8.93;;;13.70;1.00;;;;;;5054573;28;20931;-76
2021/10/31 08:43:39;;;;;;;21.30;10.97;;;13.60;1.00;;;;;;5053287;28;20412;-76
2021/10/31 08:46:11;;;;;;;20.67;10.70;;;13.50;1.00;;;;;;5051837;28;20429;-77
2021/10/31 08:48:39;;;;;;;22.10;11.03;;;13.70;1.00;;;;;;5053563;28;20392;-77
2021/10/31 08:51:25;;;;;;;18.87;10.87;;;13.80;1.00;;;;;;5059934;28;20384;-77
2021/10/31 08:53:56;;;;;;;18.90;9.50;;;13.70;1.00;;;;;;5060695;28;20425;-77
2021/10/31 08:56:29;;;;;;;25.17;11.60;;;13.60;1.00;;;;;;5059914;28;20432;-77
2021/10/31 08:58:58;;;;;;;21.60;11.07;;;14.10;1.00;;;;;;5056832;28;20396;-77
2021/10/31 09:01:26;;;;;;;19.50;10.23;;;13.90;1.00;;;;;;5073514;28;20815;-76
2021/10/31 09:03:53;;;;;;;17.67;8.77;;;14.30;1.00;;;;;;5066085;28;20437;-77
2021/10/31 09:06:20;;;;;;;18.43;9.73;;;14.20;1.00;;;;;;5064944;28;20395;-78
2021/10/31 09:08:56;;;;;;;19.00;10.10;;;14.20;1.00;;;;;;5032685;28;20441;-79
2021/10/31 09:11:55;;;;;;;17.17;8.67;;;14.30;1.00;;;;;;5033737;28;20398;-80
2021/10/31 09:14:23;;;;;;;19.97;9.57;;;14.40;1.00;;;;;;5049730;28;20520;-80
2021/10/31 09:16:49;;;;;;;17.53;9.13;;;;;;;;;;5047574;28;20569;-79
2021/10/31 09:19:16;;;;;;;17.83;8.93;;;14.80;1.00;;;;;;5047231;28;20429;-79
2021/10/31 09:21:43;;;;;;;16.40;8.23;;;15.30;1.00;;;;;;5055855;28;20475;-79
2021/10/31 09:24:09;;;;;;;14.03;7.70;;;;;;;;;;5051995;28;20378;-76
2021/10/31 09:26:37;;;;;;;23.13;7.90;;;15.20;1.00;;;;;;5048036;28;20999;-76
2021/10/31 09:29:04;;;;;;;13.40;6.57;;;;;;;;;;5040737;28;20396;-76
2021/10/31 09:31:32;;;;;;;18.73;7.63;;;15.30;1.00;;;;;;5044573;28;20384;-76
2021/10/31 09:34:13;;;;;;;10.57;6.10;;;15.40;1.00;;;;;;5041716;28;20451;-76
2021/10/31 09:36:40;;;;;;;15.40;7.27;;;15.60;1.00;;;;;;5056551;28;20435;-76
2021/10/31 09:39:09;;;;;;;12.40;5.93;;;15.50;1.00;;;;;;5061335;28;20437;-79
2021/10/31 09:41:50;;;;;;;9.67;6.27;;;15.50;1.00;;;;;;5050618;28;20388;-78
2021/10/31 09:44:39;;;;;;;9.07;5.87;;;15.70;1.00;;;;;;5066331;28;20405;-79
2021/10/31 09:47:05;;;;;;;8.37;5.13;;;16.00;1.00;;;;;;5056739;28;20403;-79
2021/10/31 09:49:37;;;;;;;10.23;5.87;;;16.00;1.00;;;;;;5054384;28;20414;-78
2021/10/31 09:52:03;;;;;;;11.77;5.60;;;15.80;1.00;;;;;;5052821;28;20393;-78
2021/10/31 09:54:31;;;;;;;10.43;5.40;;;16.40;1.00;;;;;;5060135;28;20768;-76
2021/10/31 09:56:57;;;;;;;19.40;6.33;;;16.20;1.00;;;;;;5056340;28;20444;-76
2021/10/31 09:59:26;;;;;;;17.80;6.67;;;;;;;;;;5053179;28;20403;-76
2021/10/31 10:04:37;;;;;;;10.70;5.37;;;16.30;1.00;;;;;;5068091;28;20897;-76
2021/10/31 10:07:06;;;;;;;12.37;4.80;;;16.50;1.00;;;;;;5060972;28;20430;-76
2021/10/31 10:09:32;;;;;;;10.03;4.67;;;;;;;;;;5056466;28;20454;-77
2021/10/31 10:12:27;;;;;;;8.50;5.10;;;15.90;1.00;;;;;;5056270;28;20451;-78
2021/10/31 10:15:10;;;;;;;14.97;4.70;;;17.00;1.00;;;;;;5050194;28;20639;-78
2021/10/31 10:17:50;;;;;;;10.10;5.47;;;16.90;1.00;;;;;;5064161;28;20437;-78
2021/10/31 10:20:17;;;;;;;34.80;5.90;;;;;;;;;;5042328;28;20438;-78
2021/10/31 10:22:49;;;;;;;10.33;4.90;;;17.20;1.00;;;;;;5050251;28;20407;-78
2021/10/31 10:25:15;;;;;;;24.23;5.87;;;;;;;;;;5056086;28;20522;-75
2021/10/31 10:27:47;;;;;;;10.30;5.57;;;;;;;;;;5053492;28;20951;-75
2021/10/31 10:30:18;;;;;;;13.73;5.60;;;17.50;1.00;;;;;;5060697;28;20401;-75
2021/10/31 10:32:58;;;;;;;10.83;5.27;;;17.60;1.00;;;;;;5054113;28;20426;-75
2021/10/31 10:35:26;;;;;;;10.23;4.50;;;17.60;1.00;;;;;;5048979;28;20456;-75
2021/10/31 10:37:56;;;;;;;17.73;5.47;;;17.70;1.00;;;;;;5062367;28;20807;-75
2021/10/31 10:40:26;;;;;;;30.97;6.50;;;;;;;;;;5073716;28;20419;-78
2021/10/31 10:42:57;;;;;;;9.67;4.13;;;;;;;;;;5055256;28;20477;-76
2021/10/31 10:45:28;;;;;;;11.43;4.57;;;17.90;1.00;;;;;;5053545;28;20430;-78
2021/10/31 10:47:56;;;;;;;11.40;4.90;;;;;;;;;;5054714;28;20417;-78
2021/10/31 10:50:27;;;;;;;14.80;4.77;;;17.90;1.00;;;;;;5053407;28;20432;-79
2021/10/31 10:52:53;;;;;;;11.97;3.80;;;;;;;;;;5054519;28;20420;-79
2021/10/31 10:55:21;;;;;;;8.03;3.20;;;;;;;;;;5062250;28;20786;-77
2021/10/31 10:57:56;;;;;;;7.93;3.50;;;18.20;1.00;;;;;;5065184;28;20460;-76
2021/10/31 11:00:27;;;;;;;8.63;3.20;;;18.40;1.00;;;;;;5074466;28;20386;-76
2021/10/31 11:03:02;;;;;;;16.67;4.10;;;;;;;;;;5074471;28;20469;-76
2021/10/31 11:05:30;;;;;;;6.80;2.40;;;18.80;1.00;;;;;;5061677;28;20399;-75
2021/10/31 11:07:57;;;;;;;34.60;4.47;;;;;;;;;;5066837;28;20507;-75
2021/10/31 11:10:28;;;;;;;20.27;4.10;;;19.10;1.00;;;;;;5054860;28;20426;-76
2021/10/31 11:13:05;;;;;;;21.03;4.17;;;19.40;1.00;;;;;;5054269;28;20376;-78
2021/10/31 11:15:33;;;;;;;7.33;2.90;;;19.50;1.00;;;;;;5064343;28;20455;-78
2021/10/31 11:18:03;;;;;;;9.73;3.10;;;;;;;;;;5074486;28;20443;-78
2021/10/31 11:20:33;;;;;;;14.03;3.33;;;;;;;;;;5074040;28;20387;-78
2021/10/31 11:23:03;;;;;;;32.43;4.87;;;19.70;1.00;;;;;;5073598;28;20883;-78
2021/10/31 11:25:30;;;;;;;13.50;2.73;;;19.70;1.00;;;;;;5073985;28;20420;-78
2021/10/31 11:27:58;;;;;;;13.10;3.03;;;;;;;;;;5046165;28;20789;-76
2021/10/31 11:30:25;;;;;;;13.93;3.30;;;19.70;1.00;;;;;;5046314;28;20432;-76
2021/10/31 11:32:51;;;;;;;20.97;3.93;;;;;;;;;;5051578;28;20422;-76
2021/10/31 11:35:18;;;;;;;31.33;5.13;;;19.70;1.00;;;;;;5047991;28;20459;-76
2021/10/31 11:37:47;;;;;;;12.97;2.90;;;;;;;;;;5051047;28;20422;-76
2021/10/31 11:40:14;;;;;;;17.73;3.57;;;19.90;1.00;;;;;;5053534;28;20496;-76
2021/10/31 11:42:45;;;;;;;35.87;5.37;;;19.90;1.00;;;;;;5052407;28;20462;-78
2021/10/31 11:45:26;;;;;;;8.87;2.53;;;;;;;;;;5052768;28;20431;-78
2021/10/31 11:48:19;;;;;;;15.63;2.40;;;20.10;1.00;;;;;;5073343;28;20401;-78
2021/10/31 11:51:11;;;;;;;7.73;2.80;;;20.20;1.00;;;;;;5073342;28;20487;-78
2021/10/31 11:53:41;;;;;;;31.87;4.40;;;;;;;;;;5068017;28;20791;-78
2021/10/31 11:56:20;;;;;;;6.87;1.80;;;;;;;;;;5056019;28;20473;-78
2021/10/31 11:58:53;;;;;;;10.33;2.17;;;;;;;;;;5058497;28;20425;-78
2021/10/31 12:01:25;;;;;;;11.13;2.20;;;;;;;;;;5073522;28;20497;-78
2021/10/31 12:03:58;;;;;;;28.77;3.87;;;;;;;;;;5066434;28;20445;-78
2021/10/31 12:06:27;;;;;;;5.27;1.63;;;;;;;;;;5036981;28;20419;-78
2021/10/31 12:09:01;;;;;;;14.17;2.37;;;20.50;1.00;;;;;;5051526;28;20424;-78
2021/10/31 12:11:32;;;;;;;20.03;3.33;;;;;;;;;;5059207;28;20435;-78
2021/10/31 12:14:03;;;;;;;20.20;2.20;;;;;;;;;;5052628;28;20427;-79
2021/10/31 12:16:49;;;;;;;13.60;3.00;;;20.90;1.00;;;;;;5047388;28;20459;-78
2021/10/31 12:19:43;;;;;;;19.50;3.40;;;20.70;1.00;;;;;;5048747;28;20458;-79
2021/10/31 12:22:18;;;;;;;8.33;1.73;;;20.60;1.00;;;;;;5049977;28;20792;-79
2021/10/31 12:25:06;;;;;;;6.50;1.60;;;;;;;;;;5052884;28;20833;-79
2021/10/31 12:27:44;;;;;;;6.90;1.57;;;20.50;1.00;;;;;;5049528;28;20415;-79
2021/10/31 12:30:25;;;;;;;19.90;2.90;;;;;;;;;;5053660;28;20486;-78
2021/10/31 12:33:13;;;;;;;28.80;3.53;;;20.40;1.00;;;;;;5047805;28;20403;-77
2021/10/31 12:36:27;;;;;;;11.20;2.03;;;20.40;1.00;;;;;;5056070;28;20454;-79
2021/10/31 12:38:56;;;;;;;12.80;2.40;;;;;;;;;;5067242;28;20476;-79
2021/10/31 12:41:29;;;;;;;11.33;2.00;;;20.60;1.00;;;;;;5053891;28;20725;-77
2021/10/31 12:44:06;;;;;;;51.70;5.17;;;;;;;;;;5055212;28;20438;-79
2021/10/31 12:46:40;;;;;;;16.13;2.70;;;;;;;;;;5052650;28;20459;-79
2021/10/31 12:49:06;;;;;;;7.70;2.03;;;;;;;;;;5046783;28;20431;-79
2021/10/31 12:52:12;;;;;;;38.73;4.63;;;;;;;;;;5059271;28;20407;-78
2021/10/31 12:54:44;;;;;;;11.77;2.43;;;;;;;;;;5052882;28;20422;-79
2021/10/31 12:57:11;;;;;;;5.83;1.87;;;;;;;;;;5051550;28;20448;-76
2021/10/31 12:59:48;;;;;;;5.03;1.60;;;20.70;1.00;;;;;;5053204;28;20403;-76
2021/10/31 13:02:20;;;;;;;11.13;1.90;;;20.70;1.00;;;;;;5053385;28;20419;-76
2021/10/31 13:05:01;;;;;;;9.33;1.97;;;20.70;1.00;;;;;;5044339;28;20468;-76
2021/10/31 13:07:49;;;;;;;9.13;2.17;;;;;;;;;;5047832;28;20427;-76
2021/10/31 13:10:21;;;;;;;6.90;2.23;;;;;;;;;;5046125;28;20495;-76
2021/10/31 13:12:51;;;;;;;5.40;1.50;;;20.50;1.00;;;;;;5041387;28;20403;-79
2021/10/31 13:15:25;;;;;;;12.60;2.13;;;;;;;;;;5047207;28;20455;-79
2021/10/31 13:17:56;;;;;;;5.10;1.57;;;;;;;;;;5041247;28;20460;-79
2021/10/31 13:20:33;;;;;;;5.50;1.53;;;20.40;1.00;;;;;;5055865;28;20507;-78
2021/10/31 13:23:02;;;;;;;6.00;1.43;;;;;;;;;;5053211;28;20418;-79
2021/10/31 13:25:36;;;;;;;4.77;1.30;;;20.50;1.00;;;;;;5052533;28;20886;-79
2021/10/31 13:28:11;;;;;;;40.57;3.93;;;;;;;;;;5048732;28;20481;-75
2021/10/31 13:30:37;;;;;;;4.73;1.10;;;;;;;;;;5055907;28;20841;-75
2021/10/31 13:33:04;;;;;;;5.50;1.20;;;;;;;;;;5061703;28;20432;-75
2021/10/31 13:35:30;;;;;;;9.37;2.17;;;;;;;;;;5067630;28;20438;-75
2021/10/31 13:38:07;;;;;;;5.70;1.27;;;;;;;;;;5056531;28;20407;-75
2021/10/31 13:40:34;;;;;;;11.87;1.63;;;20.40;1.00;;;;;;5056350;28;20406;-75
2021/10/31 13:43:00;;;;;;;4.20;1.23;;;;;;;;;;5055825;28;20422;-75
2021/10/31 13:45:27;;;;;;;67.17;5.60;;;;;;;;;;5049390;28;20446;-76
2021/10/31 13:47:55;;;;;;;6.67;1.40;;;20.10;1.00;;;;;;5055705;28;20442;-75
2021/10/31 13:50:33;;;;;;;3.47;1.07;;;;;;;;;;5053694;28;20459;-75
2021/10/31 13:53:01;;;;;;;6.97;1.40;;;;;;;;;;5053412;28;20884;-75
2021/10/31 13:55:29;;;;;;;4.67;1.07;;;19.80;1.00;;;;;;5056064;28;20468;-75
2021/10/31 13:57:56;;;;;;;8.73;1.57;;;;;;;;;;5067702;28;20498;-78
2021/10/31 14:00:27;;;;;;;6.43;1.57;;;19.80;1.00;;;;;;5055491;28;20428;-75
2021/10/31 14:02:56;;;;;;;4.40;1.10;;;;;;;;;;5056060;28;20419;-75
2021/10/31 14:05:22;;;;;;;7.30;1.87;;;;;;;;;;5043210;28;20430;-75
2021/10/31 14:07:51;;;;;;;12.23;1.60;;;19.80;1.00;;;;;;5053502;28;20418;-75
2021/10/31 14:10:22;;;;;;;9.93;1.83;;;;;;;;;;5062530;28;20417;-75
2021/10/31 14:12:48;;;;;;;25.37;3.67;;;;;;;;;;5070075;28;20437;-75
2021/10/31 14:15:19;;;;;;;7.87;2.07;;;19.80;1.00;;;;;;5056335;28;20912;-75
2021/10/31 14:17:57;;;;;;;4.97;1.37;;;19.70;1.00;;;;;;5061752;28;20440;-75
2021/10/31 14:20:24;;;;;;;12.10;2.50;;;;;;;;;;5059743;28;20752;-75